BAW8648 LHBP-LWSK
Flight info
| Callsign | BAW8648 |
|---|---|
| Flight time | 1h 1m |
| Altitude | 35000 |
| Route | FAHAZ2B FAHAZ DCT KEROP DCT REDVA UL616 KOGAT KOGAT1A |
| Aircraft | A320/M-SDE3FGIJ1KRWXY/SB1 |
Departure
| Time | 2026-05-04 00:07 |
|---|---|
| Airport | Budapest Liszt Ferenc International Airport (LHBP) |
Arrival
| Time | 2026-05-04 01:08 |
|---|---|
| Airport | Skopje International Airport (LWSK) |
| Time | Latitude | Longitude | Altitude | Speed | Heading |
|---|---|---|---|---|---|
| 2026-05-03 23:31 | 47.43201 | 19.25874 | 458 ft | 0 kts | 43° |
| 2026-05-03 23:56 | 47.43185 | 19.25852 | 457 ft | 4 kts | 45° |
| 2026-05-03 23:56 | 47.43167 | 19.25823 | 457 ft | 4 kts | 51° |
| 2026-05-03 23:56 | 47.43151 | 19.25791 | 457 ft | 4 kts | 64° |
| 2026-05-03 23:57 | 47.43145 | 19.25756 | 457 ft | 4 kts | 112° |
| 2026-05-03 23:57 | 47.43151 | 19.25743 | 455 ft | 1 kts | 132° |
| 2026-05-03 23:57 | 47.43151 | 19.25742 | 457 ft | 0 kts | 132° |
| 2026-05-04 00:00 | 47.43151 | 19.25746 | 457 ft | 0 kts | 109° |
| 2026-05-04 00:00 | 47.43154 | 19.25750 | 455 ft | 0 kts | 71° |
| 2026-05-04 00:00 | 47.43163 | 19.25752 | 457 ft | 2 kts | 4° |
| 2026-05-04 00:01 | 47.43172 | 19.25729 | 457 ft | 4 kts | 292° |
| 2026-05-04 00:01 | 47.43188 | 19.25682 | 457 ft | 6 kts | 305° |
| 2026-05-04 00:01 | 47.43224 | 19.25625 | 457 ft | 9 kts | 313° |
| 2026-05-04 00:01 | 47.43273 | 19.25546 | 457 ft | 12 kts | 312° |
| 2026-05-04 00:02 | 47.43335 | 19.25446 | 457 ft | 14 kts | 313° |
| 2026-05-04 00:02 | 47.43397 | 19.25344 | 457 ft | 12 kts | 311° |
| 2026-05-04 00:02 | 47.43455 | 19.25324 | 456 ft | 10 kts | 34° |
| 2026-05-04 00:02 | 47.43516 | 19.25404 | 456 ft | 13 kts | 42° |
| 2026-05-04 00:03 | 47.43590 | 19.25504 | 457 ft | 16 kts | 42° |
| 2026-05-04 00:03 | 47.43679 | 19.25623 | 455 ft | 19 kts | 42° |
| 2026-05-04 00:03 | 47.43772 | 19.25747 | 457 ft | 16 kts | 42° |
| 2026-05-04 00:03 | 47.43862 | 19.25868 | 457 ft | 18 kts | 42° |
| 2026-05-04 00:04 | 47.43939 | 19.25971 | 456 ft | 14 kts | 42° |
| 2026-05-04 00:04 | 47.44012 | 19.26038 | 458 ft | 13 kts | 355° |
| 2026-05-04 00:04 | 47.44084 | 19.25941 | 457 ft | 16 kts | 312° |
| 2026-05-04 00:04 | 47.44164 | 19.25812 | 458 ft | 18 kts | 312° |
| 2026-05-04 00:05 | 47.44254 | 19.25666 | 457 ft | 19 kts | 314° |
| 2026-05-04 00:05 | 47.44336 | 19.25567 | 458 ft | 13 kts | 338° |
| 2026-05-04 00:05 | 47.44432 | 19.25572 | 460 ft | 14 kts | 21° |
| 2026-05-04 00:05 | 47.44494 | 19.25659 | 470 ft | 9 kts | 62° |
| 2026-05-04 00:06 | 47.44506 | 19.25715 | 473 ft | 7 kts | 79° |
| 2026-05-04 00:06 | 47.44487 | 19.25846 | 476 ft | 21 kts | 124° |
| 2026-05-04 00:06 | 47.44298 | 19.26157 | 474 ft | 72 kts | 132° |
| 2026-05-04 00:06 | 47.43814 | 19.26936 | 474 ft | 129 kts | 132° |
| 2026-05-04 00:07 | 47.43109 | 19.28076 | 520 ft | 167 kts | 132° |
| 2026-05-04 00:07 | 47.42331 | 19.29347 | 1109 ft | 168 kts | 130° |
| 2026-05-04 00:07 | 47.41694 | 19.30776 | 1784 ft | 166 kts | 119° |
| 2026-05-04 00:07 | 47.41121 | 19.32295 | 2275 ft | 175 kts | 118° |
| 2026-05-04 00:08 | 47.40525 | 19.33908 | 2778 ft | 183 kts | 118° |
| 2026-05-04 00:08 | 47.39903 | 19.35597 | 3275 ft | 193 kts | 119° |
| 2026-05-04 00:08 | 47.39219 | 19.37423 | 3649 ft | 215 kts | 120° |
| 2026-05-04 00:08 | 47.38405 | 19.39412 | 4054 ft | 238 kts | 130° |
| 2026-05-04 00:09 | 47.36966 | 19.40756 | 4500 ft | 259 kts | 168° |
| 2026-05-04 00:09 | 47.35162 | 19.40523 | 5263 ft | 268 kts | 204° |
| 2026-05-04 00:09 | 47.33733 | 19.38777 | 6136 ft | 273 kts | 234° |
| 2026-05-04 00:09 | 47.32800 | 19.36319 | 7053 ft | 277 kts | 245° |
| 2026-05-04 00:10 | 47.32030 | 19.33694 | 7972 ft | 281 kts | 246° |
| 2026-05-04 00:10 | 47.31192 | 19.31066 | 8810 ft | 286 kts | 237° |
| 2026-05-04 00:10 | 47.29835 | 19.28927 | 9632 ft | 290 kts | 213° |
| 2026-05-04 00:10 | 47.27982 | 19.27771 | 10443 ft | 293 kts | 189° |
| 2026-05-04 00:11 | 47.25921 | 19.27820 | 10955 ft | 308 kts | 166° |
| 2026-05-04 00:11 | 47.23765 | 19.28644 | 11199 ft | 332 kts | 163° |
| 2026-05-04 00:11 | 47.21493 | 19.29578 | 11748 ft | 344 kts | 163° |
| 2026-05-04 00:11 | 47.19163 | 19.30543 | 12506 ft | 350 kts | 163° |
| 2026-05-04 00:12 | 47.16805 | 19.31509 | 13274 ft | 354 kts | 163° |
| 2026-05-04 00:12 | 47.14416 | 19.32474 | 14026 ft | 359 kts | 163° |
| 2026-05-04 00:12 | 47.12025 | 19.33428 | 14750 ft | 363 kts | 163° |
| 2026-05-04 00:12 | 47.09571 | 19.34396 | 15478 ft | 367 kts | 164° |
| 2026-05-04 00:13 | 47.07089 | 19.35372 | 16159 ft | 371 kts | 163° |
| 2026-05-04 00:13 | 47.04577 | 19.36357 | 16827 ft | 376 kts | 164° |
| 2026-05-04 00:13 | 47.02039 | 19.37351 | 17470 ft | 380 kts | 163° |
| 2026-05-04 00:13 | 46.99475 | 19.38355 | 18103 ft | 383 kts | 163° |
| 2026-05-04 00:14 | 46.96885 | 19.39367 | 18730 ft | 388 kts | 164° |
| 2026-05-04 00:14 | 46.94264 | 19.40387 | 19376 ft | 392 kts | 164° |
| 2026-05-04 00:14 | 46.91615 | 19.41421 | 20039 ft | 396 kts | 163° |
| 2026-05-04 00:14 | 46.88947 | 19.42466 | 20691 ft | 399 kts | 163° |
| 2026-05-04 00:15 | 46.86251 | 19.43521 | 21310 ft | 403 kts | 163° |
| 2026-05-04 00:15 | 46.83530 | 19.44585 | 21892 ft | 407 kts | 163° |
| 2026-05-04 00:15 | 46.80787 | 19.45653 | 22441 ft | 410 kts | 164° |
| 2026-05-04 00:15 | 46.78014 | 19.46728 | 22987 ft | 414 kts | 164° |
| 2026-05-04 00:16 | 46.75220 | 19.47812 | 23547 ft | 418 kts | 164° |
| 2026-05-04 00:16 | 46.72397 | 19.48908 | 24111 ft | 421 kts | 163° |
| 2026-05-04 00:16 | 46.69555 | 19.50015 | 24672 ft | 424 kts | 163° |
| 2026-05-04 00:16 | 46.66692 | 19.51131 | 25213 ft | 428 kts | 164° |
| 2026-05-04 00:17 | 46.63807 | 19.52254 | 25741 ft | 431 kts | 164° |
| 2026-05-04 00:17 | 46.60892 | 19.53386 | 26258 ft | 435 kts | 164° |
| 2026-05-04 00:17 | 46.57957 | 19.54521 | 26763 ft | 438 kts | 164° |
| 2026-05-04 00:17 | 46.55003 | 19.55662 | 27253 ft | 441 kts | 164° |
| 2026-05-04 00:18 | 46.52024 | 19.56814 | 27724 ft | 445 kts | 164° |
| 2026-05-04 00:18 | 46.49022 | 19.57971 | 28201 ft | 448 kts | 164° |
| 2026-05-04 00:18 | 46.46000 | 19.59131 | 28660 ft | 451 kts | 164° |
| 2026-05-04 00:18 | 46.42960 | 19.60295 | 29084 ft | 454 kts | 164° |
| 2026-05-04 00:19 | 46.39899 | 19.61470 | 29490 ft | 456 kts | 164° |
| 2026-05-04 00:19 | 46.36862 | 19.62633 | 29868 ft | 459 kts | 164° |
| 2026-05-04 00:19 | 46.33766 | 19.63815 | 30245 ft | 461 kts | 164° |
| 2026-05-04 00:19 | 46.30665 | 19.64999 | 30765 ft | 460 kts | 164° |
| 2026-05-04 00:20 | 46.27574 | 19.66177 | 31284 ft | 459 kts | 164° |
| 2026-05-04 00:20 | 46.24487 | 19.67354 | 31781 ft | 458 kts | 164° |
| 2026-05-04 00:20 | 46.21405 | 19.68534 | 32258 ft | 458 kts | 164° |
| 2026-05-04 00:20 | 46.18330 | 19.69709 | 32728 ft | 457 kts | 164° |
| 2026-05-04 00:21 | 46.15235 | 19.70790 | 33191 ft | 457 kts | 166° |
| 2026-05-04 00:21 | 46.12126 | 19.71749 | 33655 ft | 457 kts | 167° |
| 2026-05-04 00:21 | 46.09008 | 19.72625 | 34107 ft | 456 kts | 168° |
| 2026-05-04 00:21 | 46.05893 | 19.73469 | 34555 ft | 456 kts | 168° |
| 2026-05-04 00:22 | 46.02778 | 19.74317 | 34998 ft | 456 kts | 168° |
| 2026-05-04 00:22 | 45.99666 | 19.75188 | 35137 ft | 456 kts | 168° |
| 2026-05-04 00:22 | 45.93408 | 19.77020 | 35174 ft | 460 kts | 167° |
| 2026-05-04 00:23 | 45.87144 | 19.78883 | 35173 ft | 460 kts | 167° |
| 2026-05-04 00:23 | 45.80853 | 19.80741 | 35175 ft | 460 kts | 167° |
| 2026-05-04 00:24 | 45.74574 | 19.82572 | 35174 ft | 461 kts | 167° |
| 2026-05-04 00:24 | 45.68289 | 19.84405 | 35179 ft | 461 kts | 167° |
| 2026-05-04 00:25 | 45.62002 | 19.86233 | 35180 ft | 461 kts | 167° |
| 2026-05-04 00:25 | 45.55748 | 19.88045 | 35184 ft | 462 kts | 167° |
| 2026-05-04 00:26 | 45.49449 | 19.89871 | 35187 ft | 462 kts | 167° |
| 2026-05-04 00:26 | 45.43150 | 19.91687 | 35188 ft | 462 kts | 167° |
| 2026-05-04 00:27 | 45.36848 | 19.93498 | 35189 ft | 462 kts | 167° |
| 2026-05-04 00:27 | 45.30539 | 19.95316 | 35190 ft | 462 kts | 167° |
| 2026-05-04 00:28 | 45.24231 | 19.97127 | 35188 ft | 463 kts | 168° |
| 2026-05-04 00:28 | 45.17909 | 19.98927 | 35190 ft | 463 kts | 168° |
| 2026-05-04 00:29 | 45.11585 | 20.00735 | 35190 ft | 464 kts | 167° |
| 2026-05-04 00:29 | 45.05264 | 20.02543 | 35190 ft | 464 kts | 167° |
| 2026-05-04 00:30 | 44.98929 | 20.04345 | 35192 ft | 464 kts | 167° |
| 2026-05-04 00:30 | 44.92591 | 20.06134 | 35192 ft | 464 kts | 167° |
| 2026-05-04 00:31 | 44.86254 | 20.07924 | 35190 ft | 465 kts | 167° |
| 2026-05-04 00:31 | 44.79911 | 20.09716 | 35186 ft | 465 kts | 167° |
| 2026-05-04 00:32 | 44.74636 | 20.11202 | 35184 ft | 465 kts | 167° |
| 2026-05-04 00:32 | 44.68284 | 20.12987 | 35184 ft | 466 kts | 167° |
| 2026-05-04 00:33 | 44.58740 | 20.15672 | 35188 ft | 467 kts | 167° |
| 2026-05-04 00:34 | 44.52369 | 20.17460 | 35191 ft | 467 kts | 167° |
| 2026-05-04 00:34 | 44.45990 | 20.19238 | 35193 ft | 468 kts | 168° |
| 2026-05-04 00:35 | 44.39605 | 20.21004 | 35195 ft | 468 kts | 168° |
| 2026-05-04 00:35 | 44.33216 | 20.22778 | 35201 ft | 468 kts | 167° |
| 2026-05-04 00:36 | 44.26870 | 20.24548 | 35205 ft | 468 kts | 168° |
| 2026-05-04 00:36 | 44.20482 | 20.26320 | 35204 ft | 468 kts | 168° |
| 2026-05-04 00:37 | 44.14088 | 20.28093 | 35209 ft | 469 kts | 168° |
| 2026-05-04 00:37 | 44.07688 | 20.29856 | 35213 ft | 468 kts | 168° |
| 2026-05-04 00:38 | 44.01293 | 20.31611 | 35213 ft | 468 kts | 168° |
| 2026-05-04 00:38 | 43.94895 | 20.33354 | 35217 ft | 469 kts | 168° |
| 2026-05-04 00:39 | 43.88494 | 20.35103 | 35218 ft | 469 kts | 168° |
| 2026-05-04 00:39 | 43.82090 | 20.36847 | 35217 ft | 469 kts | 168° |
| 2026-05-04 00:40 | 43.75683 | 20.38583 | 35218 ft | 469 kts | 168° |
| 2026-05-04 00:40 | 43.69281 | 20.40325 | 35219 ft | 469 kts | 168° |
| 2026-05-04 00:41 | 43.62878 | 20.42065 | 35218 ft | 469 kts | 168° |
| 2026-05-04 00:41 | 43.56467 | 20.43794 | 35219 ft | 470 kts | 168° |
| 2026-05-04 00:42 | 43.50057 | 20.45526 | 35218 ft | 470 kts | 168° |
| 2026-05-04 00:42 | 43.43640 | 20.47262 | 35218 ft | 470 kts | 168° |
| 2026-05-04 00:43 | 43.37266 | 20.48980 | 35216 ft | 470 kts | 168° |
| 2026-05-04 00:43 | 43.30842 | 20.50694 | 35216 ft | 471 kts | 168° |
| 2026-05-04 00:44 | 43.24417 | 20.52405 | 35213 ft | 470 kts | 168° |
| 2026-05-04 00:44 | 43.17987 | 20.54124 | 35211 ft | 471 kts | 168° |
| 2026-05-04 00:45 | 43.11554 | 20.55842 | 35209 ft | 471 kts | 168° |
| 2026-05-04 00:45 | 43.05123 | 20.57547 | 34971 ft | 470 kts | 168° |
| 2026-05-04 00:45 | 43.01889 | 20.58484 | 33841 ft | 481 kts | 163° |
| 2026-05-04 00:46 | 42.98699 | 20.59953 | 32819 ft | 487 kts | 157° |
| 2026-05-04 00:46 | 42.95525 | 20.61649 | 31975 ft | 490 kts | 157° |
| 2026-05-04 00:46 | 42.92349 | 20.63331 | 31244 ft | 489 kts | 157° |
| 2026-05-04 00:46 | 42.89174 | 20.65003 | 30482 ft | 489 kts | 157° |
| 2026-05-04 00:47 | 42.86013 | 20.66661 | 29925 ft | 484 kts | 157° |
| 2026-05-04 00:47 | 42.82886 | 20.68300 | 29355 ft | 479 kts | 157° |
| 2026-05-04 00:47 | 42.79799 | 20.69920 | 28782 ft | 474 kts | 157° |
| 2026-05-04 00:47 | 42.76737 | 20.71529 | 28227 ft | 468 kts | 157° |
| 2026-05-04 00:48 | 42.73719 | 20.73114 | 27671 ft | 463 kts | 157° |
| 2026-05-04 00:48 | 42.70730 | 20.74683 | 27128 ft | 457 kts | 156° |
| 2026-05-04 00:48 | 42.67778 | 20.76228 | 26584 ft | 452 kts | 156° |
| 2026-05-04 00:48 | 42.64856 | 20.77756 | 26056 ft | 447 kts | 156° |
| 2026-05-04 00:49 | 42.61972 | 20.79266 | 25549 ft | 442 kts | 156° |
| 2026-05-04 00:49 | 42.59125 | 20.80758 | 25055 ft | 436 kts | 156° |
| 2026-05-04 00:49 | 42.56311 | 20.82229 | 24563 ft | 431 kts | 156° |
| 2026-05-04 00:49 | 42.53529 | 20.83679 | 24108 ft | 425 kts | 156° |
| 2026-05-04 00:50 | 42.50778 | 20.85112 | 23651 ft | 421 kts | 156° |
| 2026-05-04 00:50 | 42.48065 | 20.86522 | 23208 ft | 416 kts | 156° |
| 2026-05-04 00:50 | 42.45373 | 20.87917 | 22768 ft | 412 kts | 156° |
| 2026-05-04 00:50 | 42.42706 | 20.89298 | 22320 ft | 409 kts | 156° |
| 2026-05-04 00:51 | 42.40069 | 20.90663 | 21878 ft | 404 kts | 156° |
| 2026-05-04 00:51 | 42.37454 | 20.92022 | 21419 ft | 400 kts | 156° |
| 2026-05-04 00:51 | 42.34866 | 20.93370 | 20973 ft | 397 kts | 156° |
| 2026-05-04 00:51 | 42.32335 | 20.94685 | 20522 ft | 393 kts | 156° |
| 2026-05-04 00:52 | 42.29790 | 20.96005 | 20051 ft | 390 kts | 156° |
| 2026-05-04 00:52 | 42.27272 | 20.97305 | 19586 ft | 386 kts | 156° |
| 2026-05-04 00:52 | 42.24779 | 20.98587 | 19113 ft | 382 kts | 156° |
| 2026-05-04 00:52 | 42.22310 | 20.99855 | 18647 ft | 378 kts | 156° |
| 2026-05-04 00:53 | 42.19860 | 21.01113 | 18162 ft | 375 kts | 156° |
| 2026-05-04 00:53 | 42.17425 | 21.02366 | 17695 ft | 373 kts | 156° |
| 2026-05-04 00:53 | 42.15044 | 21.03719 | 17217 ft | 369 kts | 149° |
| 2026-05-04 00:53 | 42.12921 | 21.05597 | 16755 ft | 363 kts | 137° |
| 2026-05-04 00:54 | 42.11143 | 21.07953 | 16285 ft | 356 kts | 126° |
| 2026-05-04 00:54 | 42.09763 | 21.10675 | 15817 ft | 349 kts | 115° |
| 2026-05-04 00:54 | 42.08778 | 21.13625 | 15363 ft | 343 kts | 109° |
| 2026-05-04 00:54 | 42.07879 | 21.16588 | 14917 ft | 340 kts | 109° |
| 2026-05-04 00:55 | 42.06983 | 21.19524 | 14464 ft | 338 kts | 109° |
| 2026-05-04 00:55 | 42.06087 | 21.22442 | 14012 ft | 336 kts | 110° |
| 2026-05-04 00:55 | 42.05194 | 21.25344 | 13556 ft | 335 kts | 110° |
| 2026-05-04 00:55 | 42.04303 | 21.28236 | 13101 ft | 334 kts | 110° |
| 2026-05-04 00:56 | 42.03415 | 21.31110 | 12648 ft | 332 kts | 110° |
| 2026-05-04 00:56 | 42.02533 | 21.33969 | 12194 ft | 330 kts | 110° |
| 2026-05-04 00:56 | 42.01655 | 21.36810 | 11743 ft | 328 kts | 110° |
| 2026-05-04 00:56 | 42.00781 | 21.39635 | 11294 ft | 326 kts | 110° |
| 2026-05-04 00:57 | 41.99913 | 21.42446 | 10853 ft | 325 kts | 111° |
| 2026-05-04 00:57 | 41.99052 | 21.45227 | 10552 ft | 318 kts | 111° |
| 2026-05-04 00:57 | 41.98212 | 21.47925 | 10433 ft | 307 kts | 111° |
| 2026-05-04 00:57 | 41.97404 | 21.50524 | 10292 ft | 296 kts | 111° |
| 2026-05-04 00:58 | 41.96616 | 21.53054 | 10080 ft | 291 kts | 111° |
| 2026-05-04 00:58 | 41.95839 | 21.55537 | 9846 ft | 288 kts | 111° |
| 2026-05-04 00:58 | 41.95066 | 21.58022 | 9482 ft | 288 kts | 111° |
| 2026-05-04 00:58 | 41.94198 | 21.60450 | 9097 ft | 290 kts | 122° |
| 2026-05-04 00:59 | 41.92850 | 21.62468 | 8766 ft | 291 kts | 140° |
| 2026-05-04 00:59 | 41.91102 | 21.63838 | 8412 ft | 292 kts | 158° |
| 2026-05-04 00:59 | 41.89175 | 21.64579 | 8009 ft | 293 kts | 165° |
| 2026-05-04 00:59 | 41.87176 | 21.65272 | 7580 ft | 295 kts | 165° |
| 2026-05-04 01:00 | 41.85202 | 21.65955 | 7132 ft | 298 kts | 165° |
| 2026-05-04 01:00 | 41.83241 | 21.66826 | 6719 ft | 297 kts | 152° |
| 2026-05-04 01:00 | 41.81599 | 21.68513 | 6329 ft | 294 kts | 129° |
| 2026-05-04 01:00 | 41.80498 | 21.70709 | 6201 ft | 281 kts | 120° |
| 2026-05-04 01:01 | 41.79506 | 21.72881 | 6210 ft | 266 kts | 120° |
| 2026-05-04 01:01 | 41.78555 | 21.74937 | 6216 ft | 252 kts | 122° |
| 2026-05-04 01:01 | 41.77355 | 21.76537 | 6214 ft | 240 kts | 152° |
| 2026-05-04 01:01 | 41.75794 | 21.77031 | 6215 ft | 229 kts | 184° |
| 2026-05-04 01:02 | 41.74302 | 21.76378 | 6218 ft | 227 kts | 217° |
| 2026-05-04 01:02 | 41.73285 | 21.74809 | 6216 ft | 224 kts | 248° |
| 2026-05-04 01:02 | 41.73012 | 21.72795 | 6218 ft | 221 kts | 278° |
| 2026-05-04 01:02 | 41.73522 | 21.70894 | 6217 ft | 218 kts | 308° |
| 2026-05-04 01:03 | 41.74650 | 21.69592 | 6219 ft | 216 kts | 336° |
| 2026-05-04 01:03 | 41.76081 | 21.69001 | 5807 ft | 217 kts | 347° |
| 2026-05-04 01:03 | 41.77572 | 21.68526 | 5223 ft | 223 kts | 347° |
| 2026-05-04 01:03 | 41.79101 | 21.68048 | 4614 ft | 228 kts | 347° |
| 2026-05-04 01:04 | 41.80627 | 21.67551 | 4019 ft | 224 kts | 346° |
| 2026-05-04 01:04 | 41.82120 | 21.67044 | 3500 ft | 215 kts | 346° |
| 2026-05-04 01:04 | 41.83513 | 21.66556 | 3202 ft | 198 kts | 345° |
| 2026-05-04 01:04 | 41.84761 | 21.66111 | 3041 ft | 176 kts | 346° |
| 2026-05-04 01:05 | 41.85893 | 21.65715 | 2824 ft | 161 kts | 346° |
| 2026-05-04 01:05 | 41.86934 | 21.65352 | 2611 ft | 148 kts | 346° |
| 2026-05-04 01:05 | 41.87907 | 21.65014 | 2394 ft | 142 kts | 346° |
| 2026-05-04 01:05 | 41.88852 | 21.64685 | 2186 ft | 139 kts | 346° |
| 2026-05-04 01:06 | 41.89785 | 21.64361 | 1980 ft | 138 kts | 346° |
| 2026-05-04 01:06 | 41.90713 | 21.64039 | 1779 ft | 137 kts | 346° |
| 2026-05-04 01:06 | 41.91639 | 21.63717 | 1578 ft | 138 kts | 346° |
| 2026-05-04 01:06 | 41.92563 | 21.63396 | 1375 ft | 137 kts | 346° |
| 2026-05-04 01:07 | 41.93483 | 21.63076 | 1176 ft | 136 kts | 346° |
| 2026-05-04 01:07 | 41.94387 | 21.62761 | 988 ft | 136 kts | 346° |
| 2026-05-04 01:07 | 41.95300 | 21.62440 | 796 ft | 135 kts | 345° |
| 2026-05-04 01:07 | 41.96094 | 21.62168 | 788 ft | 96 kts | 345° |
| 2026-05-04 01:08 | 41.96581 | 21.61999 | 791 ft | 55 kts | 345° |
| 2026-05-04 01:08 | 41.96916 | 21.61882 | 790 ft | 35 kts | 346° |
| 2026-05-04 01:08 | 41.96998 | 21.61953 | 790 ft | 17 kts | 117° |
| 2026-05-04 01:08 | 41.96920 | 21.62086 | 792 ft | 19 kts | 129° |
| 2026-05-04 01:09 | 41.96819 | 21.62180 | 794 ft | 19 kts | 166° |
| 2026-05-04 01:09 | 41.96681 | 21.62228 | 793 ft | 22 kts | 166° |
| 2026-05-04 01:09 | 41.96522 | 21.62284 | 793 ft | 25 kts | 164° |
| 2026-05-04 01:09 | 41.96343 | 21.62347 | 792 ft | 28 kts | 165° |
| 2026-05-04 01:10 | 41.96158 | 21.62412 | 791 ft | 19 kts | 165° |
| 2026-05-04 01:10 | 41.96129 | 21.62490 | 793 ft | 11 kts | 75° |
| 2026-05-04 01:10 | 41.96143 | 21.62562 | 793 ft | 0 kts | 75° |